AEE907 LCLK-LGAV
Flight info
| Callsign | AEE907 |
|---|---|
| Flight time | N/A |
| Altitude | 34000 |
| Route | PHA M31 GENOS DCT PEDER DCT EVENO UM601 RDS UL995 VARIX |
| Aircraft | A21N/M-SDE2E3FGHIJ1RWXY/LB1 |
Departure
| Time | 2026-05-01 14:34 |
|---|---|
| Airport | Larnaca International Airport (LCLK) |
Arrival
| Time | N/A |
|---|---|
| Airport | Athens Eleftherios Venizelos International Airport (LGAV) |
| Time | Latitude | Longitude | Altitude | Speed | Heading |
|---|---|---|---|---|---|
| 2026-05-01 13:39 | 34.86985 | 33.61095 | 26 ft | 0 kts | 225° |
| 2026-05-01 14:20 | 34.86992 | 33.61105 | 26 ft | 4 kts | 225° |
| 2026-05-01 14:21 | 34.87011 | 33.61128 | 27 ft | 4 kts | 225° |
| 2026-05-01 14:21 | 34.87029 | 33.61150 | 29 ft | 2 kts | 225° |
| 2026-05-01 14:21 | 34.87047 | 33.61164 | 29 ft | 4 kts | 179° |
| 2026-05-01 14:22 | 34.87086 | 33.61129 | 30 ft | 3 kts | 134° |
| 2026-05-01 14:22 | 34.87089 | 33.61125 | 30 ft | 0 kts | 135° |
| 2026-05-01 14:26 | 34.87080 | 33.61137 | 27 ft | 4 kts | 135° |
| 2026-05-01 14:26 | 34.87054 | 33.61168 | 26 ft | 4 kts | 135° |
| 2026-05-01 14:26 | 34.87032 | 33.61194 | 26 ft | 5 kts | 135° |
| 2026-05-01 14:27 | 34.87002 | 33.61230 | 26 ft | 7 kts | 135° |
| 2026-05-01 14:27 | 34.86964 | 33.61277 | 26 ft | 9 kts | 134° |
| 2026-05-01 14:27 | 34.86918 | 33.61333 | 26 ft | 10 kts | 135° |
| 2026-05-01 14:28 | 34.86899 | 33.61452 | 26 ft | 9 kts | 42° |
| 2026-05-01 14:28 | 34.86950 | 33.61512 | 26 ft | 11 kts | 45° |
| 2026-05-01 14:28 | 34.87007 | 33.61583 | 26 ft | 13 kts | 45° |
| 2026-05-01 14:28 | 34.87072 | 33.61663 | 26 ft | 14 kts | 46° |
| 2026-05-01 14:29 | 34.87144 | 33.61751 | 26 ft | 15 kts | 45° |
| 2026-05-01 14:29 | 34.87222 | 33.61847 | 26 ft | 17 kts | 45° |
| 2026-05-01 14:30 | 34.87492 | 33.62177 | 26 ft | 20 kts | 45° |
| 2026-05-01 14:30 | 34.87592 | 33.62300 | 26 ft | 21 kts | 45° |
| 2026-05-01 14:30 | 34.87698 | 33.62428 | 28 ft | 22 kts | 45° |
| 2026-05-01 14:31 | 34.87925 | 33.62705 | 26 ft | 24 kts | 45° |
| 2026-05-01 14:31 | 34.88046 | 33.62852 | 26 ft | 25 kts | 45° |
| 2026-05-01 14:31 | 34.88171 | 33.63007 | 28 ft | 26 kts | 45° |
| 2026-05-01 14:31 | 34.88302 | 33.63167 | 27 ft | 27 kts | 45° |
| 2026-05-01 14:32 | 34.88413 | 33.63301 | 25 ft | 10 kts | 45° |
| 2026-05-01 14:32 | 34.88441 | 33.63378 | 25 ft | 12 kts | 109° |
| 2026-05-01 14:32 | 34.88383 | 33.63454 | 26 ft | 13 kts | 136° |
| 2026-05-01 14:32 | 34.88331 | 33.63515 | 26 ft | 6 kts | 136° |
| 2026-05-01 14:33 | 34.88292 | 33.63515 | 25 ft | 7 kts | 224° |
| 2026-05-01 14:33 | 34.88253 | 33.63470 | 25 ft | 9 kts | 223° |
| 2026-05-01 14:33 | 34.88115 | 33.63302 | 25 ft | 63 kts | 226° |
| 2026-05-01 14:33 | 34.87643 | 33.62723 | 26 ft | 127 kts | 225° |
| 2026-05-01 14:34 | 34.86941 | 33.61863 | 307 ft | 144 kts | 224° |
| 2026-05-01 14:34 | 34.86235 | 33.60977 | 798 ft | 150 kts | 225° |
| 2026-05-01 14:34 | 34.85516 | 33.60034 | 1357 ft | 153 kts | 229° |
| 2026-05-01 14:34 | 34.84783 | 33.59087 | 1908 ft | 156 kts | 228° |
| 2026-05-01 14:35 | 34.84022 | 33.58119 | 2513 ft | 159 kts | 229° |
| 2026-05-01 14:35 | 34.83258 | 33.57134 | 3126 ft | 161 kts | 229° |
| 2026-05-01 14:35 | 34.82435 | 33.56079 | 3464 ft | 183 kts | 229° |
| 2026-05-01 14:35 | 34.81513 | 33.54891 | 3882 ft | 202 kts | 228° |
| 2026-05-01 14:36 | 34.80507 | 33.53602 | 4374 ft | 219 kts | 228° |
| 2026-05-01 14:36 | 34.79398 | 33.52176 | 4713 ft | 244 kts | 228° |
| 2026-05-01 14:36 | 34.78188 | 33.50620 | 5196 ft | 261 kts | 228° |
| 2026-05-01 14:36 | 34.76930 | 33.49006 | 5883 ft | 271 kts | 228° |
| 2026-05-01 14:37 | 34.75619 | 33.47326 | 6653 ft | 275 kts | 228° |
| 2026-05-01 14:37 | 34.74296 | 33.45632 | 7486 ft | 276 kts | 229° |
| 2026-05-01 14:37 | 34.72977 | 33.43945 | 8365 ft | 276 kts | 229° |
| 2026-05-01 14:37 | 34.71652 | 33.42249 | 9243 ft | 276 kts | 229° |
| 2026-05-01 14:38 | 34.70319 | 33.40544 | 10017 ft | 281 kts | 229° |
| 2026-05-01 14:38 | 34.69031 | 33.38677 | 10345 ft | 297 kts | 239° |
| 2026-05-01 14:38 | 34.68152 | 33.36333 | 10608 ft | 314 kts | 256° |
| 2026-05-01 14:38 | 34.67932 | 33.33630 | 10855 ft | 332 kts | 272° |
| 2026-05-01 14:39 | 34.68067 | 33.30758 | 11105 ft | 350 kts | 274° |
| 2026-05-01 14:39 | 34.68232 | 33.27729 | 11387 ft | 366 kts | 274° |
| 2026-05-01 14:39 | 34.68383 | 33.24606 | 11853 ft | 374 kts | 273° |
| 2026-05-01 14:39 | 34.68522 | 33.21441 | 12510 ft | 376 kts | 273° |
| 2026-05-01 14:40 | 34.68655 | 33.18257 | 13219 ft | 377 kts | 273° |
| 2026-05-01 14:40 | 34.68785 | 33.15061 | 13869 ft | 379 kts | 273° |
| 2026-05-01 14:40 | 34.68912 | 33.11861 | 14435 ft | 382 kts | 272° |
| 2026-05-01 14:40 | 34.69035 | 33.08621 | 15014 ft | 384 kts | 272° |
| 2026-05-01 14:41 | 34.69163 | 33.05367 | 15605 ft | 387 kts | 272° |
| 2026-05-01 14:41 | 34.69291 | 33.02094 | 16205 ft | 389 kts | 273° |
| 2026-05-01 14:41 | 34.69418 | 32.98794 | 16819 ft | 392 kts | 272° |
| 2026-05-01 14:41 | 34.69543 | 32.95483 | 17439 ft | 394 kts | 272° |
| 2026-05-01 14:42 | 34.69667 | 32.92189 | 18028 ft | 396 kts | 272° |
| 2026-05-01 14:42 | 34.69794 | 32.88838 | 18570 ft | 398 kts | 272° |
| 2026-05-01 14:42 | 34.69918 | 32.85487 | 19090 ft | 400 kts | 272° |
| 2026-05-01 14:42 | 34.70044 | 32.82107 | 19611 ft | 401 kts | 273° |
| 2026-05-01 14:43 | 34.70168 | 32.78713 | 20149 ft | 403 kts | 273° |
| 2026-05-01 14:43 | 34.70251 | 32.76439 | 20490 ft | 404 kts | 273° |
| 2026-05-01 14:43 | 34.70374 | 32.73054 | 21017 ft | 406 kts | 273° |
| 2026-05-01 14:43 | 34.70498 | 32.69619 | 21523 ft | 407 kts | 273° |
| 2026-05-01 14:44 | 34.70622 | 32.66174 | 22001 ft | 410 kts | 273° |
| 2026-05-01 14:44 | 34.70866 | 32.59230 | 23020 ft | 413 kts | 273° |
| 2026-05-01 14:44 | 34.70987 | 32.55733 | 23516 ft | 415 kts | 273° |
| 2026-05-01 14:45 | 34.71106 | 32.52226 | 23931 ft | 417 kts | 272° |
| 2026-05-01 14:45 | 34.70895 | 32.45212 | 24751 ft | 420 kts | 268° |
| 2026-05-01 14:45 | 34.70705 | 32.41617 | 25133 ft | 422 kts | 268° |
| 2026-05-01 14:46 | 34.70517 | 32.38105 | 25521 ft | 423 kts | 268° |
| 2026-05-01 14:46 | 34.70133 | 32.30973 | 26441 ft | 421 kts | 268° |
| 2026-05-01 14:46 | 34.69942 | 32.27437 | 26969 ft | 418 kts | 268° |
| 2026-05-01 14:47 | 34.69752 | 32.23933 | 27463 ft | 415 kts | 268° |
| 2026-05-01 14:47 | 34.69564 | 32.20441 | 27999 ft | 412 kts | 268° |
| 2026-05-01 14:47 | 34.69377 | 32.16999 | 28508 ft | 410 kts | 268° |
| 2026-05-01 14:48 | 34.68999 | 32.10121 | 29488 ft | 406 kts | 268° |
| 2026-05-01 14:48 | 34.68810 | 32.06711 | 29962 ft | 404 kts | 268° |
| 2026-05-01 14:48 | 34.68431 | 31.99932 | 30675 ft | 401 kts | 268° |
| 2026-05-01 14:49 | 34.68209 | 31.93187 | 31325 ft | 398 kts | 275° |
| 2026-05-01 14:49 | 34.69560 | 31.86721 | 31925 ft | 398 kts | 293° |
| 2026-05-01 14:50 | 34.71856 | 31.81857 | 32408 ft | 399 kts | 298° |
| 2026-05-01 14:50 | 34.75195 | 31.75122 | 33073 ft | 397 kts | 297° |
| 2026-05-01 14:51 | 34.76596 | 31.72233 | 33351 ft | 396 kts | 297° |
| 2026-05-01 14:51 | 34.79395 | 31.66473 | 33872 ft | 395 kts | 297° |
| 2026-05-01 14:52 | 34.83579 | 31.57843 | 33944 ft | 394 kts | 297° |
| 2026-05-01 14:53 | 34.87745 | 31.49233 | 33931 ft | 394 kts | 297° |
| 2026-05-01 14:53 | 34.90525 | 31.43490 | 33932 ft | 393 kts | 297° |
| 2026-05-01 14:54 | 34.93294 | 31.37743 | 33927 ft | 393 kts | 297° |
| 2026-05-01 14:54 | 34.96058 | 31.31997 | 33929 ft | 393 kts | 297° |
| 2026-05-01 14:55 | 34.98818 | 31.26250 | 33933 ft | 393 kts | 297° |
| 2026-05-01 14:55 | 35.01558 | 31.20543 | 33932 ft | 392 kts | 297° |
| 2026-05-01 14:56 | 35.04312 | 31.14793 | 33927 ft | 392 kts | 297° |
| 2026-05-01 14:56 | 35.07057 | 31.09050 | 33927 ft | 392 kts | 297° |
| 2026-05-01 14:57 | 35.09816 | 31.03258 | 33923 ft | 391 kts | 297° |
| 2026-05-01 14:57 | 35.13882 | 30.94699 | 33921 ft | 391 kts | 297° |
| 2026-05-01 14:58 | 35.16610 | 30.88957 | 33917 ft | 390 kts | 297° |
| 2026-05-01 14:58 | 35.19905 | 30.83651 | 33922 ft | 396 kts | 308° |
| 2026-05-01 14:59 | 35.23687 | 30.78760 | 33923 ft | 396 kts | 308° |
| 2026-05-01 14:59 | 35.27463 | 30.73853 | 33917 ft | 395 kts | 308° |
| 2026-05-01 15:00 | 35.33084 | 30.66503 | 33916 ft | 394 kts | 308° |
| 2026-05-01 15:01 | 35.36821 | 30.61608 | 33916 ft | 393 kts | 308° |
| 2026-05-01 15:01 | 35.40550 | 30.56705 | 33916 ft | 393 kts | 308° |
| 2026-05-01 15:02 | 35.44272 | 30.51813 | 33919 ft | 392 kts | 308° |
| 2026-05-01 15:02 | 35.47971 | 30.46936 | 33919 ft | 391 kts | 308° |
| 2026-05-01 15:03 | 35.51676 | 30.42046 | 33914 ft | 391 kts | 308° |
| 2026-05-01 15:03 | 35.55384 | 30.37151 | 33914 ft | 391 kts | 307° |
| 2026-05-01 15:04 | 35.59081 | 30.32253 | 33909 ft | 390 kts | 307° |
| 2026-05-01 15:04 | 35.62769 | 30.27368 | 33904 ft | 390 kts | 307° |
| 2026-05-01 15:05 | 35.66449 | 30.22489 | 33902 ft | 389 kts | 307° |
| 2026-05-01 15:05 | 35.70122 | 30.17604 | 33903 ft | 388 kts | 307° |
| 2026-05-01 15:06 | 35.73793 | 30.12727 | 33906 ft | 388 kts | 307° |
| 2026-05-01 15:06 | 35.77451 | 30.07850 | 33901 ft | 387 kts | 307° |
| 2026-05-01 15:07 | 35.81094 | 30.02981 | 33897 ft | 386 kts | 306° |
| 2026-05-01 15:07 | 35.83975 | 29.97556 | 33889 ft | 377 kts | 290° |
| 2026-05-01 15:08 | 35.85684 | 29.91470 | 33895 ft | 376 kts | 286° |
| 2026-05-01 15:08 | 35.87310 | 29.85384 | 33898 ft | 376 kts | 287° |
| 2026-05-01 15:09 | 35.88958 | 29.79272 | 33899 ft | 375 kts | 287° |
| 2026-05-01 15:09 | 35.90609 | 29.73162 | 33899 ft | 374 kts | 287° |
| 2026-05-01 15:10 | 35.92245 | 29.67097 | 33902 ft | 374 kts | 287° |
| 2026-05-01 15:10 | 35.94694 | 29.57976 | 33904 ft | 373 kts | 287° |
| 2026-05-01 15:11 | 35.97142 | 29.48858 | 33909 ft | 373 kts | 287° |
| 2026-05-01 15:12 | 35.98777 | 29.42789 | 33911 ft | 372 kts | 287° |
| 2026-05-01 15:12 | 36.01211 | 29.33701 | 33900 ft | 372 kts | 287° |
| 2026-05-01 15:14 | 36.05255 | 29.18561 | 33915 ft | 371 kts | 286° |
| 2026-05-01 15:14 | 36.07670 | 29.09480 | 33917 ft | 370 kts | 286° |
| 2026-05-01 15:15 | 36.10867 | 28.97403 | 33916 ft | 369 kts | 286° |
| 2026-05-01 15:16 | 36.14046 | 28.85333 | 33923 ft | 369 kts | 286° |
| 2026-05-01 15:18 | 36.17982 | 28.70291 | 33915 ft | 368 kts | 285° |
| 2026-05-01 15:19 | 36.21124 | 28.58259 | 33923 ft | 367 kts | 285° |
| 2026-05-01 15:19 | 36.23466 | 28.49243 | 33927 ft | 366 kts | 285° |
| 2026-05-01 15:20 | 36.25790 | 28.40231 | 33936 ft | 366 kts | 285° |
| 2026-05-01 15:21 | 36.27331 | 28.34221 | 33936 ft | 366 kts | 285° |
| 2026-05-01 15:21 | 36.28867 | 28.28225 | 33936 ft | 365 kts | 285° |
| 2026-05-01 15:22 | 36.31172 | 28.19220 | 33936 ft | 365 kts | 285° |
| 2026-05-01 15:22 | 36.32702 | 28.13232 | 33934 ft | 365 kts | 285° |
| 2026-05-01 15:23 | 36.34329 | 28.07258 | 33935 ft | 367 kts | 289° |
| 2026-05-01 15:23 | 36.36393 | 28.01468 | 33935 ft | 367 kts | 290° |
| 2026-05-01 15:24 | 36.38475 | 27.95687 | 33935 ft | 367 kts | 290° |
| 2026-05-01 15:24 | 36.40538 | 27.89936 | 33941 ft | 367 kts | 290° |
| 2026-05-01 15:25 | 36.42611 | 27.84143 | 33944 ft | 367 kts | 290° |
| 2026-05-01 15:25 | 36.44680 | 27.78351 | 33943 ft | 367 kts | 290° |
| 2026-05-01 15:26 | 36.46747 | 27.72550 | 33948 ft | 367 kts | 290° |
| 2026-05-01 15:26 | 36.48811 | 27.66746 | 33955 ft | 367 kts | 290° |
| 2026-05-01 15:27 | 36.50872 | 27.60940 | 33957 ft | 367 kts | 290° |
| 2026-05-01 15:28 | 36.53602 | 27.53231 | 33962 ft | 367 kts | 290° |
| 2026-05-01 15:28 | 36.55660 | 27.47421 | 33966 ft | 367 kts | 289° |
| 2026-05-01 15:29 | 36.58729 | 27.38710 | 33970 ft | 366 kts | 289° |
| 2026-05-01 15:30 | 36.62466 | 27.28072 | 33984 ft | 366 kts | 289° |
| 2026-05-01 15:31 | 36.68917 | 27.09638 | 33993 ft | 366 kts | 289° |
| 2026-05-01 15:32 | 36.72958 | 26.97996 | 33993 ft | 366 kts | 289° |
| 2026-05-01 15:34 | 36.79011 | 26.80517 | 33996 ft | 366 kts | 289° |